Terminal Aerodrome Forecast
Issued by NWS

Home | Current Version | Previous Version | Graphics & Text | Print | Product List | Glossary On
Versions: 1 2 3 4 5 6 7 8 9 10 11 12 13 14 15 16 17 18 19
000
FTUS43 KMPX 270308 AAA
TAFRWF
TAF AMD
KRWF 270308Z 2703/2724 32008KT P6SM FEW025
      TEMPO 2704/2705 BKN015
     FM270500 32006KT P6SM OVC015
     FM271300 VRB03KT P6SM FEW015 SCT100 BKN250
     FM271800 15005KT P6SM BKN250=

USA.gov is the U.S. government's official web portal to all federal, state and local government web resources and services.